sensor_id;sensor_type;location;lat;lon;timestamp;P1;durP1;ratioP1;P2;durP2;ratioP2
31482;SDS011;18103;52.246;8.052;2023-11-19T00:02:18;6.43;;;4.73;;
31482;SDS011;18103;52.246;8.052;2023-11-19T00:04:47;7.17;;;5.17;;
31482;SDS011;18103;52.246;8.052;2023-11-19T00:07:12;5.37;;;4.83;;
31482;SDS011;18103;52.246;8.052;2023-11-19T00:09:40;5.87;;;4.50;;
31482;SDS011;18103;52.246;8.052;2023-11-19T00:12:08;6.40;;;5.03;;
31482;SDS011;18103;52.246;8.052;2023-11-19T00:14:34;6.43;;;5.07;;
31482;SDS011;18103;52.246;8.052;2023-11-19T00:16:59;7.90;;;4.80;;
31482;SDS011;18103;52.246;8.052;2023-11-19T00:19:25;6.63;;;4.53;;
31482;SDS011;18103;52.246;8.052;2023-11-19T00:21:51;5.10;;;4.00;;
31482;SDS011;18103;52.246;8.052;2023-11-19T00:24:19;4.30;;;3.10;;
31482;SDS011;18103;52.246;8.052;2023-11-19T00:26:45;5.30;;;3.97;;
31482;SDS011;18103;52.246;8.052;2023-11-19T00:29:14;5.93;;;3.83;;
31482;SDS011;18103;52.246;8.052;2023-11-19T00:31:43;3.37;;;2.17;;
31482;SDS011;18103;52.246;8.052;2023-11-19T00:34:09;5.77;;;4.00;;
31482;SDS011;18103;52.246;8.052;2023-11-19T00:36:35;5.47;;;3.93;;
31482;SDS011;18103;52.246;8.052;2023-11-19T00:39:02;3.63;;;3.17;;
31482;SDS011;18103;52.246;8.052;2023-11-19T00:41:27;5.43;;;4.20;;
31482;SDS011;18103;52.246;8.052;2023-11-19T00:43:53;8.40;;;4.97;;
31482;SDS011;18103;52.246;8.052;2023-11-19T00:46:21;6.27;;;4.57;;
31482;SDS011;18103;52.246;8.052;2023-11-19T00:48:49;5.37;;;4.00;;
31482;SDS011;18103;52.246;8.052;2023-11-19T00:51:14;6.57;;;3.57;;
31482;SDS011;18103;52.246;8.052;2023-11-19T00:53:40;5.53;;;4.07;;
31482;SDS011;18103;52.246;8.052;2023-11-19T00:56:07;8.73;;;3.97;;
31482;SDS011;18103;52.246;8.052;2023-11-19T00:58:32;4.33;;;3.60;;
31482;SDS011;18103;52.246;8.052;2023-11-19T01:00:58;4.77;;;3.97;;
31482;SDS011;18103;52.246;8.052;2023-11-19T01:03:24;5.70;;;3.77;;
31482;SDS011;18103;52.246;8.052;2023-11-19T01:05:50;6.07;;;4.37;;
31482;SDS011;18103;52.246;8.052;2023-11-19T01:08:18;6.87;;;5.40;;
31482;SDS011;18103;52.246;8.052;2023-11-19T01:10:46;5.83;;;4.03;;
31482;SDS011;18103;52.246;8.052;2023-11-19T01:13:11;9.67;;;4.83;;
31482;SDS011;18103;52.246;8.052;2023-11-19T01:15:39;3.23;;;2.87;;
31482;SDS011;18103;52.246;8.052;2023-11-19T01:18:06;5.37;;;4.37;;
31482;SDS011;18103;52.246;8.052;2023-11-19T01:20:33;6.43;;;4.53;;
31482;SDS011;18103;52.246;8.052;2023-11-19T01:22:59;5.47;;;4.33;;
31482;SDS011;18103;52.246;8.052;2023-11-19T01:25:26;7.23;;;4.73;;
31482;SDS011;18103;52.246;8.052;2023-11-19T01:27:52;6.43;;;4.80;;
31482;SDS011;18103;52.246;8.052;2023-11-19T01:30:19;6.77;;;4.97;;
31482;SDS011;18103;52.246;8.052;2023-11-19T01:32:45;5.77;;;4.30;;
31482;SDS011;18103;52.246;8.052;2023-11-19T01:35:10;8.13;;;4.37;;
31482;SDS011;18103;52.246;8.052;2023-11-19T01:37:36;7.63;;;5.37;;
31482;SDS011;18103;52.246;8.052;2023-11-19T01:40:01;8.53;;;5.47;;
31482;SDS011;18103;52.246;8.052;2023-11-19T01:42:29;7.40;;;5.10;;
31482;SDS011;18103;52.246;8.052;2023-11-19T01:44:57;6.87;;;5.27;;
31482;SDS011;18103;52.246;8.052;2023-11-19T01:47:24;8.47;;;5.80;;
31482;SDS011;18103;52.246;8.052;2023-11-19T01:49:51;9.20;;;6.47;;
31482;SDS011;18103;52.246;8.052;2023-11-19T01:52:17;8.23;;;5.77;;
31482;SDS011;18103;52.246;8.052;2023-11-19T01:54:47;9.50;;;6.30;;
31482;SDS011;18103;52.246;8.052;2023-11-19T01:57:14;9.40;;;6.77;;
31482;SDS011;18103;52.246;8.052;2023-11-19T01:59:40;10.40;;;6.23;;
31482;SDS011;18103;52.246;8.052;2023-11-19T02:02:07;10.13;;;6.00;;
31482;SDS011;18103;52.246;8.052;2023-11-19T02:04:37;10.67;;;6.13;;
31482;SDS011;18103;52.246;8.052;2023-11-19T02:07:03;11.40;;;6.77;;
31482;SDS011;18103;52.246;8.052;2023-11-19T02:09:29;11.27;;;6.43;;
31482;SDS011;18103;52.246;8.052;2023-11-19T02:11:55;8.93;;;6.80;;
31482;SDS011;18103;52.246;8.052;2023-11-19T02:14:24;9.30;;;7.07;;
31482;SDS011;18103;52.246;8.052;2023-11-19T02:16:51;13.47;;;7.93;;
31482;SDS011;18103;52.246;8.052;2023-11-19T02:19:19;13.57;;;7.87;;
31482;SDS011;18103;52.246;8.052;2023-11-19T02:21:45;11.73;;;7.70;;
31482;SDS011;18103;52.246;8.052;2023-11-19T02:24:10;10.20;;;7.37;;
31482;SDS011;18103;52.246;8.052;2023-11-19T02:29:30;9.77;;;7.23;;
31482;SDS011;18103;52.246;8.052;2023-11-19T02:31:59;12.83;;;8.10;;
31482;SDS011;18103;52.246;8.052;2023-11-19T02:34:26;10.43;;;7.37;;
31482;SDS011;18103;52.246;8.052;2023-11-19T02:36:54;12.13;;;6.97;;
31482;SDS011;18103;52.246;8.052;2023-11-19T02:39:19;14.50;;;6.97;;
31482;SDS011;18103;52.246;8.052;2023-11-19T02:41:49;16.80;;;6.80;;
31482;SDS011;18103;52.246;8.052;2023-11-19T02:44:18;16.20;;;8.40;;
31482;SDS011;18103;52.246;8.052;2023-11-19T02:46:43;18.23;;;8.37;;
31482;SDS011;18103;52.246;8.052;2023-11-19T02:49:13;14.83;;;8.10;;
31482;SDS011;18103;52.246;8.052;2023-11-19T02:51:39;16.83;;;9.20;;
31482;SDS011;18103;52.246;8.052;2023-11-19T02:54:04;15.10;;;8.03;;
31482;SDS011;18103;52.246;8.052;2023-11-19T02:56:29;22.23;;;10.03;;
31482;SDS011;18103;52.246;8.052;2023-11-19T02:58:59;25.40;;;8.73;;
31482;SDS011;18103;52.246;8.052;2023-11-19T03:01:32;14.63;;;9.20;;
31482;SDS011;18103;52.246;8.052;2023-11-19T03:03:59;14.50;;;7.97;;
31482;SDS011;18103;52.246;8.052;2023-11-19T03:06:27;20.27;;;9.50;;
31482;SDS011;18103;52.246;8.052;2023-11-19T03:08:56;19.07;;;9.63;;
31482;SDS011;18103;52.246;8.052;2023-11-19T03:11:23;15.07;;;9.37;;
31482;SDS011;18103;52.246;8.052;2023-11-19T03:13:53;19.30;;;8.33;;
31482;SDS011;18103;52.246;8.052;2023-11-19T03:16:19;20.67;;;9.70;;
31482;SDS011;18103;52.246;8.052;2023-11-19T03:18:47;16.73;;;9.73;;
31482;SDS011;18103;52.246;8.052;2023-11-19T03:21:12;23.73;;;10.57;;
31482;SDS011;18103;52.246;8.052;2023-11-19T03:23:38;18.67;;;10.43;;
31482;SDS011;18103;52.246;8.052;2023-11-19T03:26:05;19.20;;;9.67;;
31482;SDS011;18103;52.246;8.052;2023-11-19T03:28:33;16.30;;;9.13;;
31482;SDS011;18103;52.246;8.052;2023-11-19T03:30:59;18.50;;;9.87;;
31482;SDS011;18103;52.246;8.052;2023-11-19T03:33:24;18.40;;;8.67;;
31482;SDS011;18103;52.246;8.052;2023-11-19T03:35:53;22.23;;;8.20;;
31482;SDS011;18103;52.246;8.052;2023-11-19T03:38:19;20.27;;;9.37;;
31482;SDS011;18103;52.246;8.052;2023-11-19T03:40:44;18.43;;;9.47;;
31482;SDS011;18103;52.246;8.052;2023-11-19T03:43:12;16.60;;;9.37;;
31482;SDS011;18103;52.246;8.052;2023-11-19T03:45:37;25.23;;;8.80;;
31482;SDS011;18103;52.246;8.052;2023-11-19T03:48:05;21.77;;;9.37;;
31482;SDS011;18103;52.246;8.052;2023-11-19T03:50:31;20.30;;;9.77;;
31482;SDS011;18103;52.246;8.052;2023-11-19T03:53:00;19.47;;;9.23;;
31482;SDS011;18103;52.246;8.052;2023-11-19T03:55:25;29.43;;;9.17;;
31482;SDS011;18103;52.246;8.052;2023-11-19T03:57:54;21.40;;;9.63;;
31482;SDS011;18103;52.246;8.052;2023-11-19T04:00:19;17.47;;;8.13;;
31482;SDS011;18103;52.246;8.052;2023-11-19T04:02:46;20.00;;;8.67;;
31482;SDS011;18103;52.246;8.052;2023-11-19T04:05:14;18.57;;;7.60;;
31482;SDS011;18103;52.246;8.052;2023-11-19T04:07:43;24.37;;;8.17;;
31482;SDS011;18103;52.246;8.052;2023-11-19T04:10:11;16.23;;;7.63;;
31482;SDS011;18103;52.246;8.052;2023-11-19T04:12:39;16.73;;;7.83;;
31482;SDS011;18103;52.246;8.052;2023-11-19T04:15:07;21.30;;;8.37;;
31482;SDS011;18103;52.246;8.052;2023-11-19T04:17:33;25.97;;;8.57;;
31482;SDS011;18103;52.246;8.052;2023-11-19T04:20:01;18.73;;;7.60;;
31482;SDS011;18103;52.246;8.052;2023-11-19T04:22:29;20.50;;;8.13;;
31482;SDS011;18103;52.246;8.052;2023-11-19T04:24:56;15.90;;;5.03;;
31482;SDS011;18103;52.246;8.052;2023-11-19T04:27:22;22.33;;;7.47;;
31482;SDS011;18103;52.246;8.052;2023-11-19T04:29:50;25.13;;;6.70;;
31482;SDS011;18103;52.246;8.052;2023-11-19T04:32:15;20.03;;;6.83;;
31482;SDS011;18103;52.246;8.052;2023-11-19T04:34:44;16.53;;;4.47;;
31482;SDS011;18103;52.246;8.052;2023-11-19T04:37:09;16.73;;;4.80;;
31482;SDS011;18103;52.246;8.052;2023-11-19T04:39:37;19.07;;;5.57;;
31482;SDS011;18103;52.246;8.052;2023-11-19T04:42:02;16.17;;;5.83;;
31482;SDS011;18103;52.246;8.052;2023-11-19T04:44:29;14.20;;;4.47;;
31482;SDS011;18103;52.246;8.052;2023-11-19T04:46:57;20.63;;;4.60;;
31482;SDS011;18103;52.246;8.052;2023-11-19T04:49:22;16.43;;;3.50;;
31482;SDS011;18103;52.246;8.052;2023-11-19T04:51:52;13.90;;;4.23;;
31482;SDS011;18103;52.246;8.052;2023-11-19T04:54:17;21.73;;;4.57;;
31482;SDS011;18103;52.246;8.052;2023-11-19T04:56:46;13.47;;;4.33;;
31482;SDS011;18103;52.246;8.052;2023-11-19T04:59:14;12.07;;;3.53;;
31482;SDS011;18103;52.246;8.052;2023-11-19T05:01:40;19.00;;;3.60;;
31482;SDS011;18103;52.246;8.052;2023-11-19T05:04:08;5.70;;;1.63;;
31482;SDS011;18103;52.246;8.052;2023-11-19T05:06:35;17.60;;;3.50;;
31482;SDS011;18103;52.246;8.052;2023-11-19T05:09:04;14.57;;;3.53;;
31482;SDS011;18103;52.246;8.052;2023-11-19T05:11:32;13.47;;;3.43;;
31482;SDS011;18103;52.246;8.052;2023-11-19T05:13:59;13.00;;;3.23;;
31482;SDS011;18103;52.246;8.052;2023-11-19T05:16:24;18.73;;;3.70;;
31482;SDS011;18103;52.246;8.052;2023-11-19T05:18:50;14.23;;;3.57;;
31482;SDS011;18103;52.246;8.052;2023-11-19T05:21:17;27.93;;;3.47;;
31482;SDS011;18103;52.246;8.052;2023-11-19T05:23:43;13.73;;;3.30;;
31482;SDS011;18103;52.246;8.052;2023-11-19T05:26:09;16.17;;;3.57;;
31482;SDS011;18103;52.246;8.052;2023-11-19T05:28:35;18.60;;;3.30;;
31482;SDS011;18103;52.246;8.052;2023-11-19T05:31:04;20.83;;;3.37;;
31482;SDS011;18103;52.246;8.052;2023-11-19T05:33:32;19.60;;;4.37;;
31482;SDS011;18103;52.246;8.052;2023-11-19T05:35:57;9.67;;;3.63;;
31482;SDS011;18103;52.246;8.052;2023-11-19T05:38:25;16.97;;;3.73;;
31482;SDS011;18103;52.246;8.052;2023-11-19T05:40:54;14.90;;;3.77;;
31482;SDS011;18103;52.246;8.052;2023-11-19T05:43:19;16.83;;;2.77;;
31482;SDS011;18103;52.246;8.052;2023-11-19T05:45:44;18.53;;;3.40;;
31482;SDS011;18103;52.246;8.052;2023-11-19T05:48:10;27.00;;;4.03;;
31482;SDS011;18103;52.246;8.052;2023-11-19T05:50:38;18.47;;;3.40;;
31482;SDS011;18103;52.246;8.052;2023-11-19T05:53:05;23.50;;;3.07;;
31482;SDS011;18103;52.246;8.052;2023-11-19T05:55:34;28.23;;;4.07;;
31482;SDS011;18103;52.246;8.052;2023-11-19T05:58:10;15.43;;;2.47;;
31482;SDS011;18103;52.246;8.052;2023-11-19T06:00:38;13.20;;;2.00;;
31482;SDS011;18103;52.246;8.052;2023-11-19T06:03:05;19.33;;;3.27;;
31482;SDS011;18103;52.246;8.052;2023-11-19T06:05:32;14.77;;;3.30;;
31482;SDS011;18103;52.246;8.052;2023-11-19T06:08:00;22.23;;;3.30;;
31482;SDS011;18103;52.246;8.052;2023-11-19T06:10:27;30.10;;;3.37;;
31482;SDS011;18103;52.246;8.052;2023-11-19T06:12:59;16.93;;;3.40;;
31482;SDS011;18103;52.246;8.052;2023-11-19T06:15:30;14.37;;;3.03;;
31482;SDS011;18103;52.246;8.052;2023-11-19T06:17:55;22.63;;;3.67;;
31482;SDS011;18103;52.246;8.052;2023-11-19T06:20:26;13.07;;;2.50;;
31482;SDS011;18103;52.246;8.052;2023-11-19T06:22:54;15.83;;;2.87;;
31482;SDS011;18103;52.246;8.052;2023-11-19T06:25:19;20.80;;;2.93;;
31482;SDS011;18103;52.246;8.052;2023-11-19T06:27:45;29.23;;;3.03;;
31482;SDS011;18103;52.246;8.052;2023-11-19T06:30:13;31.20;;;4.23;;
31482;SDS011;18103;52.246;8.052;2023-11-19T06:32:40;21.67;;;2.90;;
31482;SDS011;18103;52.246;8.052;2023-11-19T06:35:06;30.47;;;3.10;;
31482;SDS011;18103;52.246;8.052;2023-11-19T06:37:32;27.27;;;3.53;;
31482;SDS011;18103;52.246;8.052;2023-11-19T06:40:00;12.40;;;3.63;;
31482;SDS011;18103;52.246;8.052;2023-11-19T06:42:25;18.90;;;2.60;;
31482;SDS011;18103;52.246;8.052;2023-11-19T06:44:53;17.93;;;3.17;;
31482;SDS011;18103;52.246;8.052;2023-11-19T06:47:19;27.53;;;3.47;;
31482;SDS011;18103;52.246;8.052;2023-11-19T06:49:44;26.07;;;3.80;;
31482;SDS011;18103;52.246;8.052;2023-11-19T06:52:10;21.73;;;2.80;;
31482;SDS011;18103;52.246;8.052;2023-11-19T06:54:35;17.33;;;2.77;;
31482;SDS011;18103;52.246;8.052;2023-11-19T06:57:03;26.93;;;3.27;;
31482;SDS011;18103;52.246;8.052;2023-11-19T06:59:31;33.83;;;3.60;;
31482;SDS011;18103;52.246;8.052;2023-11-19T07:01:56;33.07;;;2.53;;
31482;SDS011;18103;52.246;8.052;2023-11-19T07:04:22;31.30;;;4.63;;
31482;SDS011;18103;52.246;8.052;2023-11-19T07:06:47;19.07;;;2.07;;
31482;SDS011;18103;52.246;8.052;2023-11-19T07:09:15;33.03;;;4.00;;
31482;SDS011;18103;52.246;8.052;2023-11-19T07:11:41;24.73;;;2.77;;
31482;SDS011;18103;52.246;8.052;2023-11-19T07:14:07;27.33;;;3.33;;
31482;SDS011;18103;52.246;8.052;2023-11-19T07:16:33;24.83;;;3.50;;
31482;SDS011;18103;52.246;8.052;2023-11-19T07:18:59;15.63;;;1.93;;
31482;SDS011;18103;52.246;8.052;2023-11-19T07:21:28;14.30;;;2.77;;
31482;SDS011;18103;52.246;8.052;2023-11-19T07:23:54;27.40;;;3.33;;
31482;SDS011;18103;52.246;8.052;2023-11-19T07:26:20;22.17;;;3.43;;
31482;SDS011;18103;52.246;8.052;2023-11-19T07:28:46;20.33;;;4.73;;
31482;SDS011;18103;52.246;8.052;2023-11-19T07:31:14;22.00;;;3.07;;
31482;SDS011;18103;52.246;8.052;2023-11-19T07:33:44;26.63;;;3.53;;
31482;SDS011;18103;52.246;8.052;2023-11-19T07:36:10;20.37;;;3.63;;
31482;SDS011;18103;52.246;8.052;2023-11-19T07:38:38;16.93;;;1.80;;
31482;SDS011;18103;52.246;8.052;2023-11-19T07:41:04;29.83;;;4.50;;
31482;SDS011;18103;52.246;8.052;2023-11-19T07:43:30;24.30;;;2.83;;
31482;SDS011;18103;52.246;8.052;2023-11-19T07:45:56;31.30;;;4.63;;
31482;SDS011;18103;52.246;8.052;2023-11-19T07:48:24;33.77;;;4.10;;
31482;SDS011;18103;52.246;8.052;2023-11-19T07:50:51;25.40;;;3.13;;
31482;SDS011;18103;52.246;8.052;2023-11-19T07:53:17;27.10;;;3.23;;
31482;SDS011;18103;52.246;8.052;2023-11-19T07:55:43;30.33;;;3.07;;
31482;SDS011;18103;52.246;8.052;2023-11-19T07:58:09;33.60;;;3.47;;
31482;SDS011;18103;52.246;8.052;2023-11-19T08:00:35;19.83;;;2.63;;
31482;SDS011;18103;52.246;8.052;2023-11-19T08:03:00;24.70;;;3.53;;
31482;SDS011;18103;52.246;8.052;2023-11-19T08:05:26;20.43;;;3.73;;
31482;SDS011;18103;52.246;8.052;2023-11-19T08:07:56;26.10;;;4.13;;
31482;SDS011;18103;52.246;8.052;2023-11-19T08:10:26;23.60;;;4.43;;
31482;SDS011;18103;52.246;8.052;2023-11-19T08:12:51;21.77;;;3.43;;
31482;SDS011;18103;52.246;8.052;2023-11-19T08:15:19;21.67;;;3.93;;
31482;SDS011;18103;52.246;8.052;2023-11-19T08:17:44;19.30;;;3.47;;
31482;SDS011;18103;52.246;8.052;2023-11-19T08:20:10;23.97;;;3.10;;
31482;SDS011;18103;52.246;8.052;2023-11-19T08:22:36;22.67;;;3.73;;
31482;SDS011;18103;52.246;8.052;2023-11-19T08:25:05;37.23;;;4.23;;
31482;SDS011;18103;52.246;8.052;2023-11-19T08:27:31;21.67;;;2.97;;
31482;SDS011;18103;52.246;8.052;2023-11-19T08:29:56;22.37;;;3.07;;
31482;SDS011;18103;52.246;8.052;2023-11-19T08:32:25;29.87;;;4.57;;
31482;SDS011;18103;52.246;8.052;2023-11-19T08:34:51;27.27;;;3.10;;
31482;SDS011;18103;52.246;8.052;2023-11-19T08:37:16;19.93;;;3.50;;
31482;SDS011;18103;52.246;8.052;2023-11-19T08:39:51;26.13;;;3.50;;
31482;SDS011;18103;52.246;8.052;2023-11-19T08:42:17;21.20;;;3.30;;
31482;SDS011;18103;52.246;8.052;2023-11-19T08:44:42;29.97;;;3.20;;
31482;SDS011;18103;52.246;8.052;2023-11-19T08:47:14;30.37;;;4.17;;
31482;SDS011;18103;52.246;8.052;2023-11-19T08:49:41;22.87;;;3.53;;
31482;SDS011;18103;52.246;8.052;2023-11-19T08:52:06;19.77;;;3.27;;
31482;SDS011;18103;52.246;8.052;2023-11-19T08:54:32;35.63;;;3.73;;
31482;SDS011;18103;52.246;8.052;2023-11-19T08:56:58;27.27;;;3.87;;
31482;SDS011;18103;52.246;8.052;2023-11-19T08:59:27;27.27;;;4.67;;
31482;SDS011;18103;52.246;8.052;2023-11-19T09:01:55;22.93;;;4.63;;
31482;SDS011;18103;52.246;8.052;2023-11-19T09:04:23;16.20;;;3.20;;
31482;SDS011;18103;52.246;8.052;2023-11-19T09:06:51;18.90;;;3.40;;
31482;SDS011;18103;52.246;8.052;2023-11-19T09:09:20;22.20;;;3.17;;
31482;SDS011;18103;52.246;8.052;2023-11-19T09:11:50;23.47;;;4.00;;
31482;SDS011;18103;52.246;8.052;2023-11-19T09:14:21;29.37;;;3.80;;
31482;SDS011;18103;52.246;8.052;2023-11-19T09:16:50;36.23;;;4.30;;
31482;SDS011;18103;52.246;8.052;2023-11-19T09:19:18;26.67;;;4.57;;
31482;SDS011;18103;52.246;8.052;2023-11-19T09:21:45;29.97;;;3.67;;
31482;SDS011;18103;52.246;8.052;2023-11-19T09:24:13;21.77;;;3.70;;
31482;SDS011;18103;52.246;8.052;2023-11-19T09:26:38;30.70;;;4.23;;
31482;SDS011;18103;52.246;8.052;2023-11-19T09:29:06;27.10;;;3.70;;
31482;SDS011;18103;52.246;8.052;2023-11-19T09:31:34;40.83;;;4.43;;
31482;SDS011;18103;52.246;8.052;2023-11-19T09:34:00;32.40;;;4.37;;
31482;SDS011;18103;52.246;8.052;2023-11-19T09:36:28;10.83;;;3.10;;
31482;SDS011;18103;52.246;8.052;2023-11-19T09:38:56;40.00;;;4.60;;
31482;SDS011;18103;52.246;8.052;2023-11-19T09:41:21;23.70;;;3.83;;
31482;SDS011;18103;52.246;8.052;2023-11-19T09:43:48;21.83;;;3.13;;
31482;SDS011;18103;52.246;8.052;2023-11-19T09:46:17;32.70;;;4.30;;
31482;SDS011;18103;52.246;8.052;2023-11-19T09:48:43;28.70;;;4.50;;
31482;SDS011;18103;52.246;8.052;2023-11-19T09:51:10;30.00;;;3.93;;
31482;SDS011;18103;52.246;8.052;2023-11-19T09:53:38;34.17;;;4.23;;
31482;SDS011;18103;52.246;8.052;2023-11-19T09:56:04;13.20;;;2.10;;
31482;SDS011;18103;52.246;8.052;2023-11-19T09:58:35;24.90;;;3.07;;
31482;SDS011;18103;52.246;8.052;2023-11-19T10:01:05;26.00;;;4.00;;
31482;SDS011;18103;52.246;8.052;2023-11-19T10:03:37;32.20;;;3.67;;
31482;SDS011;18103;52.246;8.052;2023-11-19T10:06:07;21.20;;;2.40;;
31482;SDS011;18103;52.246;8.052;2023-11-19T10:08:33;26.43;;;4.23;;
31482;SDS011;18103;52.246;8.052;2023-11-19T10:11:01;18.43;;;3.30;;
31482;SDS011;18103;52.246;8.052;2023-11-19T10:13:31;19.67;;;3.37;;
31482;SDS011;18103;52.246;8.052;2023-11-19T10:16:03;22.63;;;3.97;;
31482;SDS011;18103;52.246;8.052;2023-11-19T10:18:36;33.13;;;4.63;;
31482;SDS011;18103;52.246;8.052;2023-11-19T10:21:04;24.90;;;3.50;;
31482;SDS011;18103;52.246;8.052;2023-11-19T10:23:31;16.37;;;3.60;;
31482;SDS011;18103;52.246;8.052;2023-11-19T10:26:03;23.70;;;4.10;;
31482;SDS011;18103;52.246;8.052;2023-11-19T10:28:38;24.73;;;4.60;;
31482;SDS011;18103;52.246;8.052;2023-11-19T10:31:05;31.43;;;3.60;;
31482;SDS011;18103;52.246;8.052;2023-11-19T10:33:30;18.57;;;4.10;;
31482;SDS011;18103;52.246;8.052;2023-11-19T10:35:56;28.83;;;4.53;;
31482;SDS011;18103;52.246;8.052;2023-11-19T10:38:25;29.30;;;4.43;;
31482;SDS011;18103;52.246;8.052;2023-11-19T10:40:51;34.87;;;3.73;;
31482;SDS011;18103;52.246;8.052;2023-11-19T10:43:22;32.67;;;4.00;;
31482;SDS011;18103;52.246;8.052;2023-11-19T10:45:51;16.57;;;3.17;;
31482;SDS011;18103;52.246;8.052;2023-11-19T10:48:19;29.33;;;4.40;;
31482;SDS011;18103;52.246;8.052;2023-11-19T10:50:46;26.87;;;3.93;;
31482;SDS011;18103;52.246;8.052;2023-11-19T10:53:18;26.87;;;3.97;;
31482;SDS011;18103;52.246;8.052;2023-11-19T10:55:45;33.83;;;4.67;;
31482;SDS011;18103;52.246;8.052;2023-11-19T10:58:12;30.90;;;4.50;;
31482;SDS011;18103;52.246;8.052;2023-11-19T11:00:45;23.93;;;3.23;;
31482;SDS011;18103;52.246;8.052;2023-11-19T11:03:18;27.07;;;4.13;;
31482;SDS011;18103;52.246;8.052;2023-11-19T11:05:50;28.10;;;3.73;;
31482;SDS011;18103;52.246;8.052;2023-11-19T11:08:16;25.70;;;3.77;;
31482;SDS011;18103;52.246;8.052;2023-11-19T11:10:52;36.37;;;3.27;;
31482;SDS011;18103;52.246;8.052;2023-11-19T11:13:18;29.83;;;4.20;;
31482;SDS011;18103;52.246;8.052;2023-11-19T11:15:44;35.23;;;4.33;;
31482;SDS011;18103;52.246;8.052;2023-11-19T11:18:11;22.23;;;3.50;;
31482;SDS011;18103;52.246;8.052;2023-11-19T11:20:38;31.63;;;3.40;;
31482;SDS011;18103;52.246;8.052;2023-11-19T11:23:21;19.00;;;2.67;;
31482;SDS011;18103;52.246;8.052;2023-11-19T11:37:21;22.20;;;4.00;;
31482;SDS011;18103;52.246;8.052;2023-11-19T11:39:57;19.30;;;3.50;;
31482;SDS011;18103;52.246;8.052;2023-11-19T11:45:04;17.33;;;3.30;;
31482;SDS011;18103;52.246;8.052;2023-11-19T11:50:10;22.17;;;3.57;;
31482;SDS011;18103;52.246;8.052;2023-11-19T11:55:34;20.83;;;4.77;;
31482;SDS011;18103;52.246;8.052;2023-11-19T11:58:02;23.50;;;3.20;;
31482;SDS011;18103;52.246;8.052;2023-11-19T12:02:55;34.87;;;4.40;;
31482;SDS011;18103;52.246;8.052;2023-11-19T12:05:21;31.27;;;4.47;;
31482;SDS011;18103;52.246;8.052;2023-11-19T12:08:10;34.90;;;4.73;;
31482;SDS011;18103;52.246;8.052;2023-11-19T12:13:12;31.87;;;3.63;;
31482;SDS011;18103;52.246;8.052;2023-11-19T12:18:23;29.93;;;4.73;;
31482;SDS011;18103;52.246;8.052;2023-11-19T12:20:51;26.53;;;3.33;;
31482;SDS011;18103;52.246;8.052;2023-11-19T12:23:16;18.87;;;3.10;;
31482;SDS011;18103;52.246;8.052;2023-11-19T12:25:42;31.63;;;4.10;;
31482;SDS011;18103;52.246;8.052;2023-11-19T12:28:13;30.00;;;4.73;;
31482;SDS011;18103;52.246;8.052;2023-11-19T12:30:41;21.43;;;3.43;;
31482;SDS011;18103;52.246;8.052;2023-11-19T12:33:09;35.97;;;3.80;;
31482;SDS011;18103;52.246;8.052;2023-11-19T12:35:39;28.07;;;4.40;;
31482;SDS011;18103;52.246;8.052;2023-11-19T12:38:17;20.23;;;3.40;;
31482;SDS011;18103;52.246;8.052;2023-11-19T12:40:44;18.83;;;3.50;;
31482;SDS011;18103;52.246;8.052;2023-11-19T12:43:10;32.07;;;3.57;;
31482;SDS011;18103;52.246;8.052;2023-11-19T12:45:35;30.97;;;3.23;;
31482;SDS011;18103;52.246;8.052;2023-11-19T12:48:10;36.37;;;4.70;;
31482;SDS011;18103;52.246;8.052;2023-11-19T12:50:54;24.37;;;4.20;;
31482;SDS011;18103;52.246;8.052;2023-11-19T12:53:23;31.00;;;3.70;;
31482;SDS011;18103;52.246;8.052;2023-11-19T12:55:50;21.23;;;3.47;;
31482;SDS011;18103;52.246;8.052;2023-11-19T12:58:35;18.23;;;2.97;;
31482;SDS011;18103;52.246;8.052;2023-11-19T13:01:07;21.97;;;3.03;;
31482;SDS011;18103;52.246;8.052;2023-11-19T13:03:33;19.63;;;3.43;;
31482;SDS011;18103;52.246;8.052;2023-11-19T13:06:03;24.17;;;3.63;;
31482;SDS011;18103;52.246;8.052;2023-11-19T13:08:39;30.23;;;3.40;;
31482;SDS011;18103;52.246;8.052;2023-11-19T13:11:07;24.00;;;3.83;;
31482;SDS011;18103;52.246;8.052;2023-11-19T13:13:49;17.70;;;3.77;;
31482;SDS011;18103;52.246;8.052;2023-11-19T13:16:18;34.47;;;3.90;;
31482;SDS011;18103;52.246;8.052;2023-11-19T13:18:44;22.60;;;4.27;;
31482;SDS011;18103;52.246;8.052;2023-11-19T13:21:09;22.47;;;3.07;;
31482;SDS011;18103;52.246;8.052;2023-11-19T13:23:37;18.23;;;3.07;;
31482;SDS011;18103;52.246;8.052;2023-11-19T13:26:03;23.00;;;3.20;;
31482;SDS011;18103;52.246;8.052;2023-11-19T13:28:31;33.77;;;4.20;;
31482;SDS011;18103;52.246;8.052;2023-11-19T13:31:02;22.73;;;3.10;;
31482;SDS011;18103;52.246;8.052;2023-11-19T13:33:30;29.57;;;3.27;;
31482;SDS011;18103;52.246;8.052;2023-11-19T13:35:56;26.83;;;3.73;;
31482;SDS011;18103;52.246;8.052;2023-11-19T13:38:22;28.03;;;3.93;;
31482;SDS011;18103;52.246;8.052;2023-11-19T13:40:49;22.13;;;3.80;;
31482;SDS011;18103;52.246;8.052;2023-11-19T13:43:16;27.07;;;3.53;;
31482;SDS011;18103;52.246;8.052;2023-11-19T13:45:46;23.77;;;3.50;;
31482;SDS011;18103;52.246;8.052;2023-11-19T13:48:11;24.23;;;3.17;;
31482;SDS011;18103;52.246;8.052;2023-11-19T13:50:37;20.70;;;4.13;;
31482;SDS011;18103;52.246;8.052;2023-11-19T13:53:02;22.73;;;3.87;;
31482;SDS011;18103;52.246;8.052;2023-11-19T13:55:29;12.87;;;1.87;;
31482;SDS011;18103;52.246;8.052;2023-11-19T13:57:55;26.60;;;3.57;;
31482;SDS011;18103;52.246;8.052;2023-11-19T14:00:23;36.93;;;4.27;;
31482;SDS011;18103;52.246;8.052;2023-11-19T14:02:53;17.17;;;3.53;;
31482;SDS011;18103;52.246;8.052;2023-11-19T14:05:21;12.57;;;2.30;;
31482;SDS011;18103;52.246;8.052;2023-11-19T14:07:49;18.03;;;4.03;;
31482;SDS011;18103;52.246;8.052;2023-11-19T14:10:16;26.87;;;8.20;;
31482;SDS011;18103;52.246;8.052;2023-11-19T14:12:44;36.13;;;6.40;;
31482;SDS011;18103;52.246;8.052;2023-11-19T14:15:10;5.93;;;1.80;;
31482;SDS011;18103;52.246;8.052;2023-11-19T14:17:37;25.10;;;3.17;;
31482;SDS011;18103;52.246;8.052;2023-11-19T14:20:03;24.67;;;3.33;;
31482;SDS011;18103;52.246;8.052;2023-11-19T14:22:37;24.47;;;3.60;;
31482;SDS011;18103;52.246;8.052;2023-11-19T14:25:09;13.57;;;3.03;;
31482;SDS011;18103;52.246;8.052;2023-11-19T14:27:39;20.77;;;2.53;;
31482;SDS011;18103;52.246;8.052;2023-11-19T14:30:06;13.77;;;2.63;;
31482;SDS011;18103;52.246;8.052;2023-11-19T14:32:37;25.90;;;3.73;;
31482;SDS011;18103;52.246;8.052;2023-11-19T14:35:04;23.90;;;3.23;;
31482;SDS011;18103;52.246;8.052;2023-11-19T14:37:30;19.20;;;2.73;;
31482;SDS011;18103;52.246;8.052;2023-11-19T14:39:59;22.83;;;3.37;;
31482;SDS011;18103;52.246;8.052;2023-11-19T14:42:25;30.07;;;3.63;;
31482;SDS011;18103;52.246;8.052;2023-11-19T14:44:55;33.30;;;3.70;;
31482;SDS011;18103;52.246;8.052;2023-11-19T14:47:21;19.10;;;2.93;;
31482;SDS011;18103;52.246;8.052;2023-11-19T14:49:47;19.43;;;4.40;;
31482;SDS011;18103;52.246;8.052;2023-11-19T14:52:12;20.90;;;3.17;;
31482;SDS011;18103;52.246;8.052;2023-11-19T14:54:38;16.40;;;2.90;;
31482;SDS011;18103;52.246;8.052;2023-11-19T14:57:04;17.20;;;3.00;;
31482;SDS011;18103;52.246;8.052;2023-11-19T14:59:29;10.97;;;2.60;;
31482;SDS011;18103;52.246;8.052;2023-11-19T15:01:58;14.87;;;2.60;;
31482;SDS011;18103;52.246;8.052;2023-11-19T15:04:25;25.03;;;4.10;;
31482;SDS011;18103;52.246;8.052;2023-11-19T15:06:56;22.83;;;3.97;;
31482;SDS011;18103;52.246;8.052;2023-11-19T15:09:24;19.10;;;1.80;;